sensor_id;sensor_type;location;lat;lon;timestamp;P1;durP1;ratioP1;P2;durP2;ratioP2
52764;SDS011;38650;44.536;18.664;2022-12-19T00:00:17;49.50;;;31.98;;
52764;SDS011;38650;44.536;18.664;2022-12-19T00:02:43;50.95;;;33.05;;
52764;SDS011;38650;44.536;18.664;2022-12-19T00:05:09;47.13;;;30.17;;
52764;SDS011;38650;44.536;18.664;2022-12-19T00:07:35;99.45;;;50.75;;
52764;SDS011;38650;44.536;18.664;2022-12-19T00:10:00;72.07;;;40.35;;
52764;SDS011;38650;44.536;18.664;2022-12-19T00:12:26;67.35;;;38.33;;
52764;SDS011;38650;44.536;18.664;2022-12-19T00:14:52;52.63;;;33.47;;
52764;SDS011;38650;44.536;18.664;2022-12-19T00:17:17;61.17;;;35.85;;
52764;SDS011;38650;44.536;18.664;2022-12-19T00:19:43;54.38;;;32.08;;
52764;SDS011;38650;44.536;18.664;2022-12-19T00:22:08;55.33;;;33.17;;
52764;SDS011;38650;44.536;18.664;2022-12-19T00:24:34;59.40;;;34.00;;
52764;SDS011;38650;44.536;18.664;2022-12-19T00:27:00;51.42;;;30.83;;
52764;SDS011;38650;44.536;18.664;2022-12-19T00:29:25;56.75;;;35.13;;
52764;SDS011;38650;44.536;18.664;2022-12-19T00:31:51;45.72;;;27.65;;
52764;SDS011;38650;44.536;18.664;2022-12-19T00:34:17;41.50;;;25.83;;
52764;SDS011;38650;44.536;18.664;2022-12-19T00:36:42;43.15;;;26.85;;
52764;SDS011;38650;44.536;18.664;2022-12-19T00:39:08;43.63;;;28.05;;
52764;SDS011;38650;44.536;18.664;2022-12-19T00:41:36;44.55;;;27.10;;
52764;SDS011;38650;44.536;18.664;2022-12-19T00:44:04;39.25;;;25.80;;
52764;SDS011;38650;44.536;18.664;2022-12-19T00:46:31;38.25;;;24.80;;
52764;SDS011;38650;44.536;18.664;2022-12-19T00:48:58;39.38;;;26.23;;
52764;SDS011;38650;44.536;18.664;2022-12-19T00:51:26;44.22;;;27.88;;
52764;SDS011;38650;44.536;18.664;2022-12-19T00:53:53;39.63;;;25.20;;
52764;SDS011;38650;44.536;18.664;2022-12-19T00:56:21;58.00;;;35.22;;
52764;SDS011;38650;44.536;18.664;2022-12-19T00:58:52;49.25;;;29.85;;
52764;SDS011;38650;44.536;18.664;2022-12-19T01:03:46;47.75;;;30.88;;
52764;SDS011;38650;44.536;18.664;2022-12-19T01:06:12;40.75;;;26.63;;
52764;SDS011;38650;44.536;18.664;2022-12-19T01:08:38;39.20;;;26.13;;
52764;SDS011;38650;44.536;18.664;2022-12-19T01:11:04;48.47;;;30.88;;
52764;SDS011;38650;44.536;18.664;2022-12-19T01:13:30;41.80;;;26.67;;
52764;SDS011;38650;44.536;18.664;2022-12-19T01:16:01;49.40;;;29.58;;
52764;SDS011;38650;44.536;18.664;2022-12-19T01:18:31;43.25;;;26.90;;
52764;SDS011;38650;44.536;18.664;2022-12-19T01:21:01;44.83;;;28.45;;
52764;SDS011;38650;44.536;18.664;2022-12-19T01:23:29;47.85;;;29.63;;
52764;SDS011;38650;44.536;18.664;2022-12-19T01:25:55;47.03;;;28.95;;
52764;SDS011;38650;44.536;18.664;2022-12-19T01:28:21;51.05;;;29.65;;
52764;SDS011;38650;44.536;18.664;2022-12-19T01:30:47;43.28;;;26.63;;
52764;SDS011;38650;44.536;18.664;2022-12-19T01:33:13;52.70;;;30.52;;
52764;SDS011;38650;44.536;18.664;2022-12-19T01:35:41;47.75;;;28.77;;
52764;SDS011;38650;44.536;18.664;2022-12-19T01:38:11;38.95;;;26.08;;
52764;SDS011;38650;44.536;18.664;2022-12-19T01:40:38;38.05;;;25.27;;
52764;SDS011;38650;44.536;18.664;2022-12-19T01:43:04;44.75;;;26.77;;
52764;SDS011;38650;44.536;18.664;2022-12-19T01:45:36;47.10;;;29.80;;
52764;SDS011;38650;44.536;18.664;2022-12-19T01:50:59;50.35;;;30.45;;
52764;SDS011;38650;44.536;18.664;2022-12-19T01:53:36;52.83;;;31.17;;
52764;SDS011;38650;44.536;18.664;2022-12-19T01:56:08;47.85;;;28.95;;
52764;SDS011;38650;44.536;18.664;2022-12-19T01:58:39;50.13;;;30.17;;
52764;SDS011;38650;44.536;18.664;2022-12-19T02:01:07;48.33;;;29.13;;
52764;SDS011;38650;44.536;18.664;2022-12-19T02:03:33;61.13;;;37.53;;
52764;SDS011;38650;44.536;18.664;2022-12-19T02:06:01;76.25;;;44.53;;
52764;SDS011;38650;44.536;18.664;2022-12-19T02:08:29;66.88;;;37.42;;
52764;SDS011;38650;44.536;18.664;2022-12-19T02:10:55;80.00;;;46.63;;
52764;SDS011;38650;44.536;18.664;2022-12-19T02:13:21;58.30;;;36.42;;
52764;SDS011;38650;44.536;18.664;2022-12-19T02:15:53;57.97;;;34.65;;
52764;SDS011;38650;44.536;18.664;2022-12-19T02:18:44;52.33;;;32.63;;
52764;SDS011;38650;44.536;18.664;2022-12-19T02:27:20;55.88;;;33.65;;
52764;SDS011;38650;44.536;18.664;2022-12-19T02:30:01;50.75;;;29.23;;
52764;SDS011;38650;44.536;18.664;2022-12-19T02:35:25;43.28;;;25.40;;
52764;SDS011;38650;44.536;18.664;2022-12-19T02:40:39;36.75;;;23.27;;
52764;SDS011;38650;44.536;18.664;2022-12-19T02:43:28;37.30;;;23.77;;
52764;SDS011;38650;44.536;18.664;2022-12-19T02:45:56;40.80;;;25.15;;
52764;SDS011;38650;44.536;18.664;2022-12-19T02:48:23;43.67;;;26.70;;
52764;SDS011;38650;44.536;18.664;2022-12-19T02:50:50;42.78;;;24.38;;
52764;SDS011;38650;44.536;18.664;2022-12-19T02:53:16;35.95;;;22.17;;
52764;SDS011;38650;44.536;18.664;2022-12-19T02:58:51;39.28;;;23.38;;
52764;SDS011;38650;44.536;18.664;2022-12-19T03:01:33;44.83;;;27.08;;
52764;SDS011;38650;44.536;18.664;2022-12-19T03:07:01;35.00;;;22.38;;
52764;SDS011;38650;44.536;18.664;2022-12-19T03:09:45;37.60;;;23.67;;
52764;SDS011;38650;44.536;18.664;2022-12-19T03:13:36;42.00;;;26.85;;
52764;SDS011;38650;44.536;18.664;2022-12-19T03:15:42;39.88;;;24.17;;
52764;SDS011;38650;44.536;18.664;2022-12-19T03:18:09;40.70;;;25.20;;
52764;SDS011;38650;44.536;18.664;2022-12-19T03:23:00;35.92;;;23.05;;
52764;SDS011;38650;44.536;18.664;2022-12-19T03:25:26;35.28;;;23.85;;
52764;SDS011;38650;44.536;18.664;2022-12-19T03:27:54;32.33;;;22.17;;
52764;SDS011;38650;44.536;18.664;2022-12-19T03:30:25;39.53;;;24.65;;
52764;SDS011;38650;44.536;18.664;2022-12-19T03:32:51;39.28;;;24.38;;
52764;SDS011;38650;44.536;18.664;2022-12-19T03:35:18;33.90;;;21.52;;
52764;SDS011;38650;44.536;18.664;2022-12-19T03:37:46;34.55;;;21.15;;
52764;SDS011;38650;44.536;18.664;2022-12-19T03:40:16;32.70;;;20.30;;
52764;SDS011;38650;44.536;18.664;2022-12-19T03:42:46;29.90;;;19.95;;
52764;SDS011;38650;44.536;18.664;2022-12-19T03:45:41;29.77;;;20.05;;
52764;SDS011;38650;44.536;18.664;2022-12-19T03:48:08;30.25;;;19.48;;
52764;SDS011;38650;44.536;18.664;2022-12-19T03:50:43;44.60;;;26.92;;
52764;SDS011;38650;44.536;18.664;2022-12-19T03:53:39;33.15;;;20.88;;
52764;SDS011;38650;44.536;18.664;2022-12-19T03:59:18;30.55;;;19.80;;
52764;SDS011;38650;44.536;18.664;2022-12-19T04:01:54;33.45;;;22.13;;
52764;SDS011;38650;44.536;18.664;2022-12-19T04:04:22;38.70;;;23.58;;
52764;SDS011;38650;44.536;18.664;2022-12-19T04:06:49;33.67;;;21.27;;
52764;SDS011;38650;44.536;18.664;2022-12-19T04:09:17;36.45;;;23.10;;
52764;SDS011;38650;44.536;18.664;2022-12-19T04:11:47;28.48;;;18.02;;
52764;SDS011;38650;44.536;18.664;2022-12-19T04:14:22;25.23;;;17.48;;
52764;SDS011;38650;44.536;18.664;2022-12-19T04:17:04;22.85;;;14.30;;
52764;SDS011;38650;44.536;18.664;2022-12-19T04:19:39;28.25;;;16.83;;
52764;SDS011;38650;44.536;18.664;2022-12-19T04:25:15;33.28;;;19.45;;
52764;SDS011;38650;44.536;18.664;2022-12-19T04:27:52;24.10;;;16.42;;
52764;SDS011;38650;44.536;18.664;2022-12-19T04:30:25;26.08;;;15.68;;
52764;SDS011;38650;44.536;18.664;2022-12-19T04:32:52;23.70;;;15.43;;
52764;SDS011;38650;44.536;18.664;2022-12-19T04:35:19;26.85;;;16.17;;
52764;SDS011;38650;44.536;18.664;2022-12-19T04:37:44;31.23;;;19.23;;
52764;SDS011;38650;44.536;18.664;2022-12-19T04:40:10;27.98;;;15.75;;
52764;SDS011;38650;44.536;18.664;2022-12-19T04:42:36;23.67;;;15.07;;
52764;SDS011;38650;44.536;18.664;2022-12-19T04:45:03;24.90;;;15.73;;
52764;SDS011;38650;44.536;18.664;2022-12-19T04:47:29;20.95;;;13.90;;
52764;SDS011;38650;44.536;18.664;2022-12-19T04:49:55;21.45;;;13.27;;
52764;SDS011;38650;44.536;18.664;2022-12-19T04:52:21;23.75;;;14.90;;
52764;SDS011;38650;44.536;18.664;2022-12-19T04:54:47;23.85;;;15.23;;
52764;SDS011;38650;44.536;18.664;2022-12-19T04:57:12;26.67;;;14.93;;
52764;SDS011;38650;44.536;18.664;2022-12-19T04:59:38;25.85;;;15.18;;
52764;SDS011;38650;44.536;18.664;2022-12-19T05:02:03;38.00;;;21.95;;
52764;SDS011;38650;44.536;18.664;2022-12-19T05:04:30;28.13;;;17.42;;
52764;SDS011;38650;44.536;18.664;2022-12-19T05:06:56;25.98;;;16.33;;
52764;SDS011;38650;44.536;18.664;2022-12-19T05:09:21;23.75;;;15.35;;
52764;SDS011;38650;44.536;18.664;2022-12-19T05:11:47;24.42;;;14.25;;
52764;SDS011;38650;44.536;18.664;2022-12-19T05:14:13;27.77;;;16.63;;
52764;SDS011;38650;44.536;18.664;2022-12-19T05:16:39;20.95;;;14.68;;
52764;SDS011;38650;44.536;18.664;2022-12-19T05:19:05;22.35;;;14.35;;
52764;SDS011;38650;44.536;18.664;2022-12-19T05:21:31;23.63;;;14.95;;
52764;SDS011;38650;44.536;18.664;2022-12-19T05:23:57;26.40;;;16.70;;
52764;SDS011;38650;44.536;18.664;2022-12-19T05:26:22;30.08;;;19.33;;
52764;SDS011;38650;44.536;18.664;2022-12-19T05:28:48;45.65;;;26.45;;
52764;SDS011;38650;44.536;18.664;2022-12-19T05:31:15;29.52;;;19.02;;
52764;SDS011;38650;44.536;18.664;2022-12-19T05:33:43;31.42;;;20.45;;
52764;SDS011;38650;44.536;18.664;2022-12-19T05:36:10;30.52;;;17.63;;
52764;SDS011;38650;44.536;18.664;2022-12-19T05:38:37;28.50;;;17.75;;
52764;SDS011;38650;44.536;18.664;2022-12-19T05:41:15;30.35;;;19.75;;
52764;SDS011;38650;44.536;18.664;2022-12-19T05:43:43;28.42;;;17.92;;
52764;SDS011;38650;44.536;18.664;2022-12-19T05:46:10;26.25;;;17.13;;
52764;SDS011;38650;44.536;18.664;2022-12-19T05:48:36;21.75;;;14.27;;
52764;SDS011;38650;44.536;18.664;2022-12-19T05:51:02;30.88;;;19.30;;
52764;SDS011;38650;44.536;18.664;2022-12-19T05:53:28;28.88;;;18.13;;
52764;SDS011;38650;44.536;18.664;2022-12-19T05:58:33;29.67;;;18.10;;
52764;SDS011;38650;44.536;18.664;2022-12-19T06:01:32;35.55;;;20.95;;
52764;SDS011;38650;44.536;18.664;2022-12-19T06:03:52;23.80;;;16.08;;
52764;SDS011;38650;44.536;18.664;2022-12-19T06:06:20;22.88;;;14.52;;
52764;SDS011;38650;44.536;18.664;2022-12-19T06:08:50;34.42;;;19.75;;
52764;SDS011;38650;44.536;18.664;2022-12-19T06:11:20;26.25;;;16.45;;
52764;SDS011;38650;44.536;18.664;2022-12-19T06:13:46;19.25;;;13.38;;
52764;SDS011;38650;44.536;18.664;2022-12-19T06:16:13;20.30;;;12.55;;
52764;SDS011;38650;44.536;18.664;2022-12-19T06:18:40;26.60;;;16.23;;
52764;SDS011;38650;44.536;18.664;2022-12-19T06:21:15;26.05;;;15.80;;
52764;SDS011;38650;44.536;18.664;2022-12-19T06:23:42;32.55;;;19.73;;
52764;SDS011;38650;44.536;18.664;2022-12-19T06:26:09;34.75;;;21.50;;
52764;SDS011;38650;44.536;18.664;2022-12-19T06:28:36;31.40;;;19.50;;
52764;SDS011;38650;44.536;18.664;2022-12-19T06:31:03;29.15;;;17.92;;
52764;SDS011;38650;44.536;18.664;2022-12-19T06:33:29;47.05;;;26.73;;
52764;SDS011;38650;44.536;18.664;2022-12-19T06:36:03;46.83;;;28.75;;
52764;SDS011;38650;44.536;18.664;2022-12-19T06:38:32;48.67;;;28.25;;
52764;SDS011;38650;44.536;18.664;2022-12-19T06:40:59;44.50;;;25.75;;
52764;SDS011;38650;44.536;18.664;2022-12-19T06:43:43;49.40;;;27.48;;
52764;SDS011;38650;44.536;18.664;2022-12-19T06:46:09;37.45;;;23.00;;
52764;SDS011;38650;44.536;18.664;2022-12-19T06:48:35;36.08;;;22.05;;
52764;SDS011;38650;44.536;18.664;2022-12-19T06:51:00;38.22;;;22.27;;
52764;SDS011;38650;44.536;18.664;2022-12-19T06:53:26;31.70;;;20.00;;
52764;SDS011;38650;44.536;18.664;2022-12-19T06:55:53;27.05;;;16.98;;
52764;SDS011;38650;44.536;18.664;2022-12-19T06:58:20;27.30;;;17.20;;
52764;SDS011;38650;44.536;18.664;2022-12-19T07:00:46;22.98;;;15.05;;
52764;SDS011;38650;44.536;18.664;2022-12-19T07:03:12;32.28;;;19.25;;
52764;SDS011;38650;44.536;18.664;2022-12-19T07:05:41;32.63;;;19.48;;
52764;SDS011;38650;44.536;18.664;2022-12-19T07:08:11;32.30;;;20.10;;
52764;SDS011;38650;44.536;18.664;2022-12-19T07:10:40;27.52;;;17.52;;
52764;SDS011;38650;44.536;18.664;2022-12-19T07:13:05;35.72;;;21.92;;
52764;SDS011;38650;44.536;18.664;2022-12-19T07:15:31;29.35;;;19.42;;
52764;SDS011;38650;44.536;18.664;2022-12-19T07:17:58;30.70;;;19.75;;
52764;SDS011;38650;44.536;18.664;2022-12-19T07:20:25;33.65;;;20.58;;
52764;SDS011;38650;44.536;18.664;2022-12-19T07:22:53;33.83;;;18.33;;
52764;SDS011;38650;44.536;18.664;2022-12-19T07:25:19;26.15;;;17.17;;
52764;SDS011;38650;44.536;18.664;2022-12-19T07:27:45;27.88;;;16.90;;
52764;SDS011;38650;44.536;18.664;2022-12-19T07:30:11;31.20;;;19.63;;
52764;SDS011;38650;44.536;18.664;2022-12-19T07:32:38;34.05;;;21.52;;
52764;SDS011;38650;44.536;18.664;2022-12-19T07:35:08;51.33;;;30.13;;
52764;SDS011;38650;44.536;18.664;2022-12-19T07:37:36;43.03;;;26.77;;
52764;SDS011;38650;44.536;18.664;2022-12-19T07:40:02;45.55;;;26.73;;
52764;SDS011;38650;44.536;18.664;2022-12-19T07:42:35;34.72;;;23.15;;
52764;SDS011;38650;44.536;18.664;2022-12-19T07:45:03;33.55;;;22.38;;
52764;SDS011;38650;44.536;18.664;2022-12-19T07:47:30;39.50;;;25.38;;
52764;SDS011;38650;44.536;18.664;2022-12-19T07:49:55;42.95;;;28.73;;
52764;SDS011;38650;44.536;18.664;2022-12-19T07:52:21;47.22;;;27.35;;
52764;SDS011;38650;44.536;18.664;2022-12-19T07:54:47;36.80;;;22.95;;
52764;SDS011;38650;44.536;18.664;2022-12-19T07:57:13;35.13;;;22.65;;
52764;SDS011;38650;44.536;18.664;2022-12-19T07:59:43;31.40;;;20.75;;
52764;SDS011;38650;44.536;18.664;2022-12-19T08:02:11;34.95;;;21.77;;
52764;SDS011;38650;44.536;18.664;2022-12-19T08:04:36;62.83;;;36.97;;
52764;SDS011;38650;44.536;18.664;2022-12-19T08:07:02;36.40;;;22.55;;
52764;SDS011;38650;44.536;18.664;2022-12-19T08:09:29;35.95;;;22.80;;
52764;SDS011;38650;44.536;18.664;2022-12-19T08:11:55;36.45;;;21.17;;
52764;SDS011;38650;44.536;18.664;2022-12-19T08:14:22;36.55;;;22.75;;
52764;SDS011;38650;44.536;18.664;2022-12-19T08:16:48;34.42;;;22.73;;
52764;SDS011;38650;44.536;18.664;2022-12-19T08:19:14;29.23;;;19.33;;
52764;SDS011;38650;44.536;18.664;2022-12-19T08:21:41;40.30;;;24.40;;
52764;SDS011;38650;44.536;18.664;2022-12-19T08:24:07;46.15;;;29.00;;
52764;SDS011;38650;44.536;18.664;2022-12-19T08:26:37;35.13;;;23.77;;
52764;SDS011;38650;44.536;18.664;2022-12-19T08:29:05;33.42;;;21.38;;
52764;SDS011;38650;44.536;18.664;2022-12-19T08:31:31;31.17;;;21.02;;
52764;SDS011;38650;44.536;18.664;2022-12-19T08:33:57;32.35;;;20.95;;
52764;SDS011;38650;44.536;18.664;2022-12-19T08:36:23;29.23;;;18.52;;
52764;SDS011;38650;44.536;18.664;2022-12-19T08:38:49;30.60;;;20.30;;
52764;SDS011;38650;44.536;18.664;2022-12-19T08:41:16;37.53;;;25.27;;
52764;SDS011;38650;44.536;18.664;2022-12-19T08:43:42;30.55;;;21.45;;
52764;SDS011;38650;44.536;18.664;2022-12-19T08:46:13;26.45;;;18.40;;
52764;SDS011;38650;44.536;18.664;2022-12-19T08:48:38;33.78;;;22.15;;
52764;SDS011;38650;44.536;18.664;2022-12-19T08:51:05;36.78;;;23.45;;
52764;SDS011;38650;44.536;18.664;2022-12-19T08:53:33;30.20;;;20.50;;
52764;SDS011;38650;44.536;18.664;2022-12-19T08:56:06;32.17;;;21.83;;
52764;SDS011;38650;44.536;18.664;2022-12-19T08:58:35;29.98;;;20.00;;
52764;SDS011;38650;44.536;18.664;2022-12-19T09:01:02;25.52;;;17.63;;
52764;SDS011;38650;44.536;18.664;2022-12-19T09:03:30;30.90;;;20.55;;
52764;SDS011;38650;44.536;18.664;2022-12-19T09:06:01;30.80;;;20.33;;
52764;SDS011;38650;44.536;18.664;2022-12-19T09:08:34;29.90;;;20.10;;
52764;SDS011;38650;44.536;18.664;2022-12-19T09:11:09;27.08;;;18.45;;
52764;SDS011;38650;44.536;18.664;2022-12-19T09:13:37;30.98;;;20.05;;
52764;SDS011;38650;44.536;18.664;2022-12-19T09:16:12;26.92;;;18.02;;
52764;SDS011;38650;44.536;18.664;2022-12-19T09:18:41;26.88;;;19.20;;
52764;SDS011;38650;44.536;18.664;2022-12-19T09:21:18;27.23;;;19.30;;
52764;SDS011;38650;44.536;18.664;2022-12-19T09:23:51;26.13;;;19.25;;
52764;SDS011;38650;44.536;18.664;2022-12-19T09:26:19;28.55;;;19.75;;
52764;SDS011;38650;44.536;18.664;2022-12-19T09:28:46;29.35;;;21.08;;
52764;SDS011;38650;44.536;18.664;2022-12-19T09:31:22;32.05;;;22.30;;
52764;SDS011;38650;44.536;18.664;2022-12-19T09:33:49;28.98;;;19.83;;
52764;SDS011;38650;44.536;18.664;2022-12-19T09:36:17;31.75;;;22.45;;
52764;SDS011;38650;44.536;18.664;2022-12-19T09:38:47;25.17;;;19.33;;
52764;SDS011;38650;44.536;18.664;2022-12-19T09:46:55;23.08;;;15.52;;
52764;SDS011;38650;44.536;18.664;2022-12-19T09:49:35;20.88;;;14.43;;
52764;SDS011;38650;44.536;18.664;2022-12-19T10:00:24;23.90;;;17.17;;
52764;SDS011;38650;44.536;18.664;2022-12-19T10:03:33;17.23;;;12.43;;
52764;SDS011;38650;44.536;18.664;2022-12-19T10:06:24;17.88;;;12.93;;
52764;SDS011;38650;44.536;18.664;2022-12-19T10:09:01;17.65;;;12.77;;
52764;SDS011;38650;44.536;18.664;2022-12-19T10:17:22;23.73;;;17.52;;
52764;SDS011;38650;44.536;18.664;2022-12-19T10:28:31;22.15;;;17.42;;
52764;SDS011;38650;44.536;18.664;2022-12-19T10:31:32;19.33;;;14.23;;
52764;SDS011;38650;44.536;18.664;2022-12-19T10:34:16;20.13;;;14.73;;
52764;SDS011;38650;44.536;18.664;2022-12-19T10:36:46;23.55;;;17.02;;
52764;SDS011;38650;44.536;18.664;2022-12-19T10:39:19;24.63;;;17.88;;
52764;SDS011;38650;44.536;18.664;2022-12-19T10:41:48;25.67;;;18.10;;
52764;SDS011;38650;44.536;18.664;2022-12-19T10:44:18;22.83;;;17.35;;
52764;SDS011;38650;44.536;18.664;2022-12-19T10:46:48;21.70;;;16.27;;
52764;SDS011;38650;44.536;18.664;2022-12-19T10:54:24;19.90;;;16.17;;
52764;SDS011;38650;44.536;18.664;2022-12-19T10:56:50;21.17;;;15.98;;
52764;SDS011;38650;44.536;18.664;2022-12-19T10:59:17;18.05;;;14.63;;
52764;SDS011;38650;44.536;18.664;2022-12-19T11:01:45;20.85;;;15.00;;
52764;SDS011;38650;44.536;18.664;2022-12-19T11:04:13;23.55;;;16.70;;
52764;SDS011;38650;44.536;18.664;2022-12-19T11:09:36;20.10;;;15.32;;
52764;SDS011;38650;44.536;18.664;2022-12-19T11:14:33;25.88;;;19.77;;
52764;SDS011;38650;44.536;18.664;2022-12-19T11:17:00;27.55;;;19.33;;
52764;SDS011;38650;44.536;18.664;2022-12-19T11:22:20;26.15;;;17.50;;
52764;SDS011;38650;44.536;18.664;2022-12-19T11:24:51;20.45;;;15.75;;
52764;SDS011;38650;44.536;18.664;2022-12-19T11:30:05;28.98;;;21.65;;
52764;SDS011;38650;44.536;18.664;2022-12-19T11:33:06;29.17;;;21.70;;
52764;SDS011;38650;44.536;18.664;2022-12-19T11:35:32;29.98;;;21.98;;
52764;SDS011;38650;44.536;18.664;2022-12-19T11:38:31;30.17;;;21.85;;
52764;SDS011;38650;44.536;18.664;2022-12-19T11:41:21;31.42;;;23.40;;
52764;SDS011;38650;44.536;18.664;2022-12-19T11:44:08;29.38;;;22.55;;
52764;SDS011;38650;44.536;18.664;2022-12-19T11:46:45;34.85;;;26.20;;
52764;SDS011;38650;44.536;18.664;2022-12-19T11:49:37;32.17;;;22.77;;
52764;SDS011;38650;44.536;18.664;2022-12-19T11:54:59;32.60;;;22.63;;
52764;SDS011;38650;44.536;18.664;2022-12-19T11:57:34;29.40;;;21.83;;
52764;SDS011;38650;44.536;18.664;2022-12-19T12:00:02;29.30;;;20.95;;
52764;SDS011;38650;44.536;18.664;2022-12-19T12:11:20;32.17;;;24.00;;
52764;SDS011;38650;44.536;18.664;2022-12-19T12:16:27;34.28;;;25.08;;
52764;SDS011;38650;44.536;18.664;2022-12-19T12:27:32;31.35;;;23.20;;
52764;SDS011;38650;44.536;18.664;2022-12-19T12:30:08;27.17;;;21.52;;
52764;SDS011;38650;44.536;18.664;2022-12-19T12:35:33;27.27;;;20.17;;
52764;SDS011;38650;44.536;18.664;2022-12-19T12:44:12;29.17;;;21.77;;
52764;SDS011;38650;44.536;18.664;2022-12-19T12:46:50;33.70;;;24.52;;
52764;SDS011;38650;44.536;18.664;2022-12-19T12:51:57;31.23;;;25.33;;
52764;SDS011;38650;44.536;18.664;2022-12-19T12:54:25;36.55;;;26.45;;
52764;SDS011;38650;44.536;18.664;2022-12-19T12:56:57;29.48;;;23.20;;
52764;SDS011;38650;44.536;18.664;2022-12-19T12:59:24;35.03;;;25.98;;
52764;SDS011;38650;44.536;18.664;2022-12-19T13:01:52;42.22;;;28.33;;
52764;SDS011;38650;44.536;18.664;2022-12-19T13:04:29;32.08;;;24.85;;
52764;SDS011;38650;44.536;18.664;2022-12-19T13:10:16;49.15;;;33.20;;
52764;SDS011;38650;44.536;18.664;2022-12-19T13:30:26;38.50;;;29.27;;
52764;SDS011;38650;44.536;18.664;2022-12-19T13:43:18;33.92;;;24.90;;
52764;SDS011;38650;44.536;18.664;2022-12-19T13:46:29;34.72;;;24.92;;
52764;SDS011;38650;44.536;18.664;2022-12-19T13:49:07;33.20;;;24.35;;
52764;SDS011;38650;44.536;18.664;2022-12-19T13:51:41;34.60;;;25.20;;
52764;SDS011;38650;44.536;18.664;2022-12-19T13:56:51;34.97;;;25.63;;
52764;SDS011;38650;44.536;18.664;2022-12-19T13:59:24;34.08;;;26.15;;
52764;SDS011;38650;44.536;18.664;2022-12-19T14:02:15;39.10;;;29.42;;
52764;SDS011;38650;44.536;18.664;2022-12-19T14:04:46;38.05;;;29.25;;
52764;SDS011;38650;44.536;18.664;2022-12-19T14:09:59;41.00;;;30.00;;
52764;SDS011;38650;44.536;18.664;2022-12-19T14:12:26;40.10;;;30.67;;
52764;SDS011;38650;44.536;18.664;2022-12-19T14:15:33;39.88;;;29.48;;
52764;SDS011;38650;44.536;18.664;2022-12-19T14:18:20;39.05;;;29.02;;
52764;SDS011;38650;44.536;18.664;2022-12-19T14:20:48;39.13;;;27.67;;
52764;SDS011;38650;44.536;18.664;2022-12-19T14:23:15;38.20;;;28.60;;
52764;SDS011;38650;44.536;18.664;2022-12-19T14:25:42;38.95;;;28.85;;
52764;SDS011;38650;44.536;18.664;2022-12-19T14:28:34;49.53;;;32.67;;
52764;SDS011;38650;44.536;18.664;2022-12-19T14:31:05;62.22;;;41.03;;
52764;SDS011;38650;44.536;18.664;2022-12-19T14:33:37;64.32;;;42.97;;
52764;SDS011;38650;44.536;18.664;2022-12-19T14:36:09;49.08;;;35.70;;
52764;SDS011;38650;44.536;18.664;2022-12-19T14:38:35;56.53;;;37.15;;
52764;SDS011;38650;44.536;18.664;2022-12-19T14:41:02;58.05;;;38.75;;
52764;SDS011;38650;44.536;18.664;2022-12-19T14:43:29;69.05;;;44.13;;
52764;SDS011;38650;44.536;18.664;2022-12-19T14:46:11;62.65;;;41.35;;
52764;SDS011;38650;44.536;18.664;2022-12-19T14:51:18;90.70;;;55.67;;
52764;SDS011;38650;44.536;18.664;2022-12-19T14:56:46;92.65;;;57.33;;
52764;SDS011;38650;44.536;18.664;2022-12-19T14:59:57;82.68;;;53.42;;
52764;SDS011;38650;44.536;18.664;2022-12-19T15:04:38;114.03;;;72.60;;
52764;SDS011;38650;44.536;18.664;2022-12-19T15:07:08;96.00;;;63.80;;
52764;SDS011;38650;44.536;18.664;2022-12-19T15:12:14;99.47;;;63.78;;
52764;SDS011;38650;44.536;18.664;2022-12-19T15:15:14;107.97;;;70.13;;
52764;SDS011;38650;44.536;18.664;2022-12-19T15:17:46;124.88;;;85.30;;
52764;SDS011;38650;44.536;18.664;2022-12-19T15:20:14;176.60;;;117.00;;
52764;SDS011;38650;44.536;18.664;2022-12-19T15:22:40;140.88;;;96.70;;
52764;SDS011;38650;44.536;18.664;2022-12-19T15:25:06;145.60;;;100.28;;
52764;SDS011;38650;44.536;18.664;2022-12-19T15:27:32;185.05;;;127.55;;
52764;SDS011;38650;44.536;18.664;2022-12-19T15:29:57;144.00;;;100.85;;
52764;SDS011;38650;44.536;18.664;2022-12-19T15:32:23;132.80;;;91.63;;
52764;SDS011;38650;44.536;18.664;2022-12-19T15:34:49;148.35;;;98.18;;
52764;SDS011;38650;44.536;18.664;2022-12-19T15:37:15;190.07;;;120.53;;
52764;SDS011;38650;44.536;18.664;2022-12-19T15:39:41;194.35;;;125.72;;
52764;SDS011;38650;44.536;18.664;2022-12-19T15:42:41;158.95;;;102.18;;
52764;SDS011;38650;44.536;18.664;2022-12-19T15:45:00;142.32;;;92.85;;
52764;SDS011;38650;44.536;18.664;2022-12-19T15:47:33;136.25;;;87.90;;
52764;SDS011;38650;44.536;18.664;2022-12-19T15:50:01;123.10;;;78.80;;
52764;SDS011;38650;44.536;18.664;2022-12-19T15:52:46;143.13;;;89.53;;
52764;SDS011;38650;44.536;18.664;2022-12-19T15:55:15;106.45;;;67.38;;
52764;SDS011;38650;44.536;18.664;2022-12-19T15:57:45;96.97;;;63.22;;
52764;SDS011;38650;44.536;18.664;2022-12-19T16:02:47;112.65;;;72.00;;
52764;SDS011;38650;44.536;18.664;2022-12-19T16:05:14;104.85;;;66.13;;
52764;SDS011;38650;44.536;18.664;2022-12-19T16:07:41;100.22;;;65.20;;
52764;SDS011;38650;44.536;18.664;2022-12-19T16:10:07;105.45;;;66.32;;
52764;SDS011;38650;44.536;18.664;2022-12-19T16:12:39;156.48;;;95.07;;
52764;SDS011;38650;44.536;18.664;2022-12-19T16:15:13;148.48;;;93.82;;
52764;SDS011;38650;44.536;18.664;2022-12-19T16:17:49;125.57;;;77.43;;
52764;SDS011;38650;44.536;18.664;2022-12-19T16:20:25;148.15;;;94.15;;
52764;SDS011;38650;44.536;18.664;2022-12-19T16:22:52;188.00;;;112.53;;
52764;SDS011;38650;44.536;18.664;2022-12-19T16:25:19;182.60;;;109.70;;
52764;SDS011;38650;44.536;18.664;2022-12-19T16:27:53;170.80;;;103.53;;
52764;SDS011;38650;44.536;18.664;2022-12-19T16:30:23;176.23;;;104.75;;
52764;SDS011;38650;44.536;18.664;2022-12-19T16:32:52;182.00;;;115.13;;
52764;SDS011;38650;44.536;18.664;2022-12-19T16:35:19;167.98;;;109.53;;
52764;SDS011;38650;44.536;18.664;2022-12-19T16:37:46;164.35;;;102.20;;
52764;SDS011;38650;44.536;18.664;2022-12-19T16:40:16;154.80;;;95.45;;
52764;SDS011;38650;44.536;18.664;2022-12-19T16:42:44;153.63;;;95.47;;
52764;SDS011;38650;44.536;18.664;2022-12-19T16:45:18;144.52;;;89.10;;
52764;SDS011;38650;44.536;18.664;2022-12-19T16:47:46;165.45;;;98.55;;
52764;SDS011;38650;44.536;18.664;2022-12-19T16:52:49;163.30;;;94.78;;
52764;SDS011;38650;44.536;18.664;2022-12-19T16:55:15;168.93;;;94.65;;
52764;SDS011;38650;44.536;18.664;2022-12-19T16:57:42;139.32;;;83.45;;
52764;SDS011;38650;44.536;18.664;2022-12-19T17:00:13;194.93;;;105.93;;
52764;SDS011;38650;44.536;18.664;2022-12-19T17:02:45;167.35;;;93.50;;
52764;SDS011;38650;44.536;18.664;2022-12-19T17:05:31;173.63;;;97.43;;
52764;SDS011;38650;44.536;18.664;2022-12-19T17:07:57;181.77;;;99.28;;
52764;SDS011;38650;44.536;18.664;2022-12-19T17:10:28;178.95;;;97.32;;